Logan, UT

11:04 AM MST on December 20, 2014 (GMT -0700)
Logan 15th Ward | Change Station
CLOSE
Current Station
Personal Weather Station
Location: Logan, UT
Elevation: 4524 ft
Nearby Weather Stations

Elev 4524 ft 41.74 °N, 111.84 °W | Updated 5 seconds ago

Overcast
Overcast
38.7 °F
Feels Like 39 °F
N
0.0
Wind Variable Wind from SW
Gusts 0.0 mph

Today
High -- | Low -- °F
--% Chance of Precip.
Yesterday
High -- | Low -- °F
Precip. -- in
7:50 AM 4:59 PM
Waning Crescent, 2% visible
Pressure 30.10 in
Visibility 6.0 miles
Clouds Few 1800 ft
Mostly Cloudy 2700 ft
Overcast 4200 ft
Windchill 39 °F
Dew Point 37 °F
Humidity 93%
Rainfall 0.00 in
Snow Depth Not available.
UV 1 out of 12
Pollen .10 out of 12
Air Quality Not available.
Flu Activity Not available.
SPECI KLGU 201756Z AUTO 00000KT 6SM BR FEW018 BKN027 OVC042 03/02 A3010 RMK AO2 RAE52 P0000 T00330017

More Conditions Fewer Conditions

Pressure 30.10 in
Visibility 6.0 miles
Clouds Few 1800 ft
Mostly Cloudy 2700 ft
Overcast 4200 ft
Windchill 39 °F
Dew Point 37 °F
Humidity 93%
Rainfall 0.00 in
Snow Depth Not available.
UV 1 out of 12
Pollen .10 out of 12
Air Quality Not available.
Flu Activity Not available.
SPECI KLGU 201756Z AUTO 00000KT 6SM BR FEW018 BKN027 OVC042 03/02 A3010 RMK AO2 RAE52 P0000 T00330017

More Conditions Fewer Conditions

10-Day Weather Forecast

Almanac

Astronomy

Dec. 20, 2014 Rise Set
Actual Time
Civil Twilight
Nautical Twilight
Astronomical Twilight
Moon
Length of Visible Light
Length of Day
Tomorrow will be .
, % of the Moon is Illuminated

Today's Extremes

State Highs State Lows

Community

WunderPhotos

Upload Photos

1,779,231 photos uploaded!

WunderBlogs® & News

Nearby

Air Quality

  Air Quality AQ Index Pollutant
Not available.

Snow Depth

Station Depth Elevation

Earthquake Activity

City Distance Mag. Time & Date
Minimum magnitude displayed is 2.5.

Coastal Water Temperatures

Place Temperature

Nearby Weather Stations